createdAt,value
2023-02-12T00:03:43.175Z,14.47
2023-02-12T00:08:42.964Z,14.13
2023-02-12T00:13:41.446Z,13.97
2023-02-12T00:18:39.702Z,13.90
2023-02-12T00:23:39.083Z,10.70
2023-02-12T00:28:39.242Z,26.50
2023-02-12T00:33:37.702Z,14.73
2023-02-12T00:38:36.496Z,13.73
2023-02-12T00:43:35.239Z,13.10
2023-02-12T00:48:34.856Z,15.57
2023-02-12T00:53:33.912Z,10.77
2023-02-12T00:58:32.180Z,10.27
2023-02-12T01:03:31.134Z,11.63
2023-02-12T01:08:32.247Z,12.43
2023-02-12T01:13:31.788Z,9.83
2023-02-12T01:18:31.816Z,11.50
2023-02-12T01:23:32.098Z,11.87
2023-02-12T01:28:30.683Z,8.27
2023-02-12T01:33:28.939Z,8.50
2023-02-12T01:38:27.204Z,9.17
2023-02-12T01:43:26.778Z,9.63
2023-02-12T01:48:27.663Z,12.77
2023-02-12T01:53:30.767Z,10.63
2023-02-12T01:58:36.508Z,10.10
2023-02-12T02:03:37.301Z,7.17
2023-02-12T02:08:35.825Z,12.00
2023-02-12T02:14:04.520Z,16.50
2023-02-12T02:24:40.949Z,16.60
2023-02-12T02:30:15.212Z,13.23
2023-02-12T02:35:20.837Z,14.20
2023-02-12T02:40:22.258Z,11.93
2023-02-12T02:45:26.045Z,9.13
2023-02-12T02:50:28.879Z,15.43
2023-02-12T02:55:31.560Z,16.47
2023-02-12T03:00:35.813Z,16.80
2023-02-12T03:05:39.283Z,15.27
2023-02-12T03:10:42.031Z,9.33
2023-02-12T03:15:46.117Z,14.10
2023-02-12T03:20:49.989Z,16.73
2023-02-12T03:26:06.335Z,16.10
2023-02-12T03:31:12.611Z,9.90
2023-02-12T03:36:28.508Z,13.50
2023-02-12T03:41:32.905Z,14.10
2023-02-12T03:46:42.353Z,16.90
2023-02-12T03:51:45.922Z,24.37
2023-02-12T03:56:48.681Z,19.70
2023-02-12T04:01:47.827Z,17.50
2023-02-12T04:06:50.380Z,12.10
2023-02-12T04:12:03.768Z,21.40
2023-02-12T04:17:07.191Z,14.97
2023-02-12T04:22:16.270Z,15.93
2023-02-12T04:27:21.765Z,17.03
2023-02-12T04:32:25.305Z,18.30
2023-02-12T04:37:31.391Z,14.20
2023-02-12T04:42:29.525Z,17.40
2023-02-12T04:47:27.927Z,16.13
2023-02-12T04:52:27.595Z,15.67
2023-02-12T04:57:25.828Z,15.77
2023-02-12T05:02:24.069Z,24.07
2023-02-12T05:07:22.321Z,14.10
2023-02-12T05:12:22.028Z,14.57
2023-02-12T05:17:22.678Z,11.67
2023-02-12T05:22:20.932Z,19.63
2023-02-12T05:27:19.185Z,21.00
2023-02-12T05:32:18.914Z,17.63
2023-02-12T05:37:17.224Z,16.37
2023-02-12T05:42:15.457Z,21.27
2023-02-12T05:47:13.708Z,21.60
2023-02-12T05:52:13.314Z,18.23
2023-02-12T05:57:12.698Z,18.27
2023-02-12T06:02:11.079Z,14.77
2023-02-12T06:07:09.403Z,16.20
2023-02-12T06:12:09.099Z,13.63
2023-02-12T06:17:07.343Z,20.47
2023-02-12T06:22:05.578Z,17.73
2023-02-12T06:27:03.844Z,16.83
2023-02-12T06:32:03.699Z,23.90
2023-02-12T06:37:02.009Z,22.00
2023-02-12T06:42:01.030Z,17.80
2023-02-12T06:46:59.480Z,18.30
2023-02-12T06:52:00.644Z,23.70
2023-02-12T06:57:00.450Z,15.60
2023-02-12T07:01:58.536Z,19.40
2023-02-12T07:06:58.296Z,19.40
2023-02-12T07:11:57.315Z,13.30
2023-02-12T07:16:57.296Z,13.40
2023-02-12T07:21:55.742Z,10.33
2023-02-12T07:26:55.380Z,19.33
2023-02-12T07:31:53.650Z,24.17
2023-02-12T07:36:51.961Z,19.60
2023-02-12T07:41:50.072Z,29.57
2023-02-12T07:46:50.533Z,14.03
2023-02-12T07:51:50.082Z,17.30
2023-02-12T07:56:48.347Z,15.47
2023-02-12T08:01:50.160Z,15.30
2023-02-12T08:06:50.720Z,18.67
2023-02-12T08:11:49.158Z,13.07
2023-02-12T08:16:50.493Z,9.60
2023-02-12T08:21:51.197Z,16.93
2023-02-12T08:26:49.341Z,20.80
2023-02-12T08:31:52.076Z,15.93
2023-02-12T08:36:52.040Z,15.83
2023-02-12T08:41:51.002Z,16.03
2023-02-12T08:46:52.295Z,17.00
2023-02-12T08:51:52.199Z,17.83
2023-02-12T08:56:50.728Z,14.80
2023-02-12T09:01:53.551Z,16.87
2023-02-12T09:06:52.502Z,19.83
2023-02-12T09:11:50.941Z,16.63
2023-02-12T09:16:49.192Z,11.60
2023-02-12T09:21:55.001Z,25.20
2023-02-12T09:26:53.965Z,15.90
2023-02-12T09:31:52.160Z,11.53
2023-02-12T09:36:52.211Z,12.33
2023-02-12T09:42:10.667Z,23.10
2023-02-12T09:47:14.947Z,14.63
2023-02-12T09:52:18.930Z,27.53
2023-02-12T09:57:24.756Z,16.00
2023-02-12T10:02:25.012Z,25.83
2023-02-12T10:07:38.304Z,20.20
2023-02-12T10:12:40.707Z,24.50
2023-02-12T10:17:44.003Z,22.33
2023-02-12T10:22:56.884Z,24.57
2023-02-12T10:27:57.787Z,21.20
2023-02-12T10:33:01.639Z,22.43
2023-02-12T10:38:06.452Z,20.40
2023-02-12T10:43:04.974Z,17.57
2023-02-12T10:48:10.173Z,13.97
2023-02-12T10:53:18.054Z,27.20
2023-02-12T10:58:22.798Z,15.60
2023-02-12T11:03:23.785Z,15.70
2023-02-12T11:08:34.548Z,14.60
2023-02-12T11:13:33.544Z,15.30
2023-02-12T11:18:34.057Z,20.77
2023-02-12T11:23:36.166Z,15.03
2023-02-12T11:28:37.744Z,13.57
2023-02-12T11:33:37.749Z,15.43
2023-02-12T11:38:48.545Z,17.20
2023-02-12T11:43:47.020Z,11.80
2023-02-12T11:48:47.796Z,8.93
2023-02-12T11:53:52.862Z,14.00
2023-02-12T11:58:52.843Z,10.90
2023-02-12T12:03:58.291Z,10.20
2023-02-12T12:09:06.415Z,8.50
2023-02-12T12:14:08.275Z,7.57
2023-02-12T12:19:30.122Z,15.40
2023-02-12T12:24:40.054Z,9.97
2023-02-12T12:29:52.502Z,8.93
2023-02-12T12:34:50.802Z,10.87
2023-02-12T12:40:19.021Z,14.93
2023-02-12T12:45:30.826Z,12.90
2023-02-12T12:50:46.878Z,10.70
2023-02-12T12:56:03.014Z,8.23
2023-02-12T13:01:21.801Z,9.33
2023-02-12T13:06:33.332Z,8.47
2023-02-12T13:11:44.131Z,11.70
2023-02-12T13:16:48.695Z,9.53
2023-02-12T13:21:54.509Z,7.70
2023-02-12T13:26:57.817Z,11.93
2023-02-12T13:31:59.268Z,10.13
2023-02-12T13:37:00.012Z,7.03
2023-02-12T13:42:17.451Z,6.87
2023-02-12T13:47:28.494Z,7.57
2023-02-12T13:52:34.922Z,7.53
2023-02-12T13:57:34.549Z,6.33
2023-02-12T14:02:49.717Z,5.40
2023-02-12T14:07:50.488Z,8.43
2023-02-12T14:12:50.646Z,6.20
2023-02-12T14:17:55.875Z,7.20
2023-02-12T14:23:34.838Z,6.93
2023-02-12T14:28:49.210Z,7.03
2023-02-12T14:33:49.365Z,8.43
2023-02-12T14:39:04.328Z,6.63
2023-02-12T14:44:42.348Z,9.10
2023-02-12T14:49:47.492Z,11.30
2023-02-12T14:54:49.615Z,7.30
2023-02-12T14:59:50.327Z,10.30
2023-02-12T15:04:52.013Z,6.90
2023-02-12T15:09:57.006Z,9.23
2023-02-12T15:15:06.143Z,7.30
2023-02-12T15:20:10.516Z,10.70
2023-02-12T15:25:22.954Z,6.80
2023-02-12T15:30:26.266Z,9.60
2023-02-12T15:35:28.668Z,8.50
2023-02-12T15:40:27.535Z,8.90
2023-02-12T15:45:27.016Z,8.53
2023-02-12T15:50:27.620Z,11.47
2023-02-12T15:55:30.566Z,8.20
2023-02-12T16:00:33.172Z,7.00
2023-02-12T16:05:35.370Z,11.47
2023-02-12T16:10:33.901Z,7.00
2023-02-12T16:15:35.530Z,6.80
2023-02-12T16:20:35.194Z,5.33
2023-02-12T16:25:35.456Z,7.30
2023-02-12T16:30:35.207Z,5.53
2023-02-12T16:35:36.631Z,5.27
2023-02-12T16:40:37.340Z,5.33
2023-02-12T16:45:38.216Z,3.80
2023-02-12T16:50:44.729Z,4.57
2023-02-12T16:55:43.192Z,3.90
2023-02-12T17:00:41.991Z,5.60
2023-02-12T17:05:42.838Z,5.60
2023-02-12T17:10:41.094Z,7.43
2023-02-12T17:15:43.825Z,8.60
2023-02-12T17:20:43.599Z,6.40
2023-02-12T17:25:41.851Z,9.80
2023-02-12T17:30:40.164Z,9.10
2023-02-12T17:35:39.162Z,8.03
2023-02-12T17:40:39.973Z,13.03
2023-02-12T17:45:44.118Z,8.23
2023-02-12T17:50:44.054Z,9.97
2023-02-12T17:55:43.739Z,15.00
2023-02-12T18:00:42.400Z,8.30
2023-02-12T18:05:42.413Z,11.23
2023-02-12T18:10:43.479Z,9.50
2023-02-12T18:15:42.305Z,8.80
2023-02-12T18:20:41.860Z,11.53
2023-02-12T18:25:43.723Z,9.20
2023-02-12T18:30:43.858Z,9.40
2023-02-12T18:35:42.810Z,8.47
2023-02-12T18:40:43.512Z,10.13
2023-02-12T18:45:41.961Z,13.33
2023-02-12T18:50:40.455Z,11.60
2023-02-12T18:55:39.697Z,11.53
2023-02-12T19:00:40.024Z,10.70
2023-02-12T19:05:38.207Z,11.30
2023-02-12T19:10:39.273Z,13.60
2023-02-12T19:15:41.415Z,11.80
2023-02-12T19:20:41.503Z,12.53
2023-02-12T19:25:43.038Z,12.90
2023-02-12T19:30:42.890Z,18.07
2023-02-12T19:35:43.266Z,14.57
2023-02-12T19:40:41.538Z,13.90
2023-02-12T19:45:39.782Z,12.60
2023-02-12T19:50:39.400Z,9.07
2023-02-12T19:55:37.700Z,11.50
2023-02-12T20:00:35.936Z,10.30
2023-02-12T20:05:34.233Z,10.20
2023-02-12T20:10:33.985Z,11.67
2023-02-12T20:15:32.321Z,11.17
2023-02-12T20:20:30.987Z,10.80
2023-02-12T20:25:30.056Z,10.47
2023-02-12T20:30:29.515Z,12.63
2023-02-12T20:35:29.697Z,10.53
2023-02-12T20:40:27.889Z,13.57
2023-02-12T20:45:26.521Z,13.70
2023-02-12T20:50:26.186Z,11.67
2023-02-12T20:55:24.423Z,14.00
2023-02-12T21:00:22.935Z,14.97
2023-02-12T21:05:21.199Z,14.47
2023-02-12T21:10:22.195Z,14.40
2023-02-12T21:15:20.467Z,19.60
2023-02-12T21:20:19.054Z,14.87
2023-02-12T21:25:17.488Z,19.93
2023-02-12T21:30:17.739Z,22.17
2023-02-12T21:35:16.123Z,21.40
2023-02-12T21:40:14.573Z,27.70
2023-02-12T21:45:12.831Z,25.17
2023-02-12T21:50:14.337Z,26.90
2023-02-12T21:55:12.640Z,29.87
2023-02-12T22:00:12.409Z,30.50
2023-02-12T22:05:14.901Z,28.23
2023-02-12T22:10:13.229Z,30.53
2023-02-12T22:15:11.712Z,33.03
2023-02-12T22:20:10.513Z,32.70
2023-02-12T22:25:10.193Z,30.40
2023-02-12T22:30:09.625Z,31.47
2023-02-12T22:35:08.480Z,32.63
2023-02-12T22:40:09.930Z,35.83
2023-02-12T22:45:08.744Z,37.67
2023-02-12T22:50:08.363Z,36.73
2023-02-12T22:55:06.970Z,34.20
2023-02-12T23:00:07.710Z,37.50
2023-02-12T23:05:06.413Z,38.23
2023-02-12T23:10:04.502Z,34.83
2023-02-12T23:15:02.740Z,37.73
2023-02-12T23:20:02.333Z,42.30
2023-02-12T23:25:00.753Z,37.43
2023-02-12T23:29:58.838Z,35.00
2023-02-12T23:34:57.097Z,39.53
2023-02-12T23:39:56.536Z,36.83
2023-02-12T23:44:56.814Z,29.33
2023-02-12T23:49:55.817Z,31.50
2023-02-12T23:54:54.095Z,27.20
2023-02-12T23:59:53.706Z,31.57
